createdAt,value
2023-04-20T00:00:35.949Z,27.56
2023-04-20T00:01:35.988Z,27.53
2023-04-20T00:02:36.109Z,27.61
2023-04-20T00:03:36.446Z,27.64
2023-04-20T00:04:36.106Z,27.57
2023-04-20T00:05:36.142Z,27.50
2023-04-20T00:06:36.158Z,27.51
2023-04-20T00:07:36.179Z,27.51
2023-04-20T00:08:36.227Z,27.58
2023-04-20T00:09:36.226Z,27.57
2023-04-20T00:10:36.284Z,27.60
2023-04-20T00:11:36.304Z,27.61
2023-04-20T00:12:36.412Z,27.73
2023-04-20T00:13:36.346Z,27.65
2023-04-20T00:14:36.392Z,27.57
2023-04-20T00:15:36.434Z,27.51
2023-04-20T00:16:36.560Z,27.58
2023-04-20T00:17:36.490Z,27.54
2023-04-20T00:18:36.472Z,27.67
2023-04-20T00:19:36.536Z,27.57
2023-04-20T00:20:36.563Z,27.48
2023-04-20T00:21:36.610Z,27.53
2023-04-20T00:22:36.653Z,27.49
2023-04-20T00:23:36.646Z,27.47
2023-04-20T00:24:36.725Z,27.51
2023-04-20T00:25:36.757Z,27.47
2023-04-20T00:26:36.778Z,27.51
2023-04-20T00:27:36.774Z,27.63
2023-04-20T00:28:36.798Z,27.76
2023-04-20T00:29:36.819Z,27.78
2023-04-20T00:30:36.917Z,27.71
2023-04-20T00:31:36.892Z,27.57
2023-04-20T00:32:36.950Z,27.54
2023-04-20T00:33:36.943Z,27.61
2023-04-20T00:34:36.972Z,27.60
2023-04-20T00:35:37.007Z,27.43
2023-04-20T00:36:37.060Z,27.74
2023-04-20T00:37:37.038Z,27.58
2023-04-20T00:38:37.112Z,27.61
2023-04-20T00:39:37.117Z,27.55
2023-04-20T00:40:37.169Z,27.54
2023-04-20T00:41:37.181Z,27.54
2023-04-20T00:42:37.223Z,27.48
2023-04-20T00:43:37.259Z,27.44
2023-04-20T00:44:37.304Z,27.53
2023-04-20T00:45:37.313Z,27.51
2023-04-20T00:46:37.408Z,27.48
2023-04-20T00:47:37.448Z,27.48
2023-04-20T00:48:37.400Z,27.51
2023-04-20T00:49:37.426Z,27.42
2023-04-20T00:50:37.505Z,27.45
2023-04-20T00:51:37.552Z,27.45
2023-04-20T00:52:37.628Z,27.45
2023-04-20T00:53:37.570Z,27.49
2023-04-20T00:54:37.621Z,27.47
2023-04-20T00:55:37.635Z,27.44
2023-04-20T00:56:37.706Z,27.42
2023-04-20T00:57:37.695Z,27.51
2023-04-20T00:58:37.752Z,27.52
2023-04-20T00:59:37.753Z,27.53
2023-04-20T01:00:37.794Z,27.57
2023-04-20T01:01:37.936Z,27.54
2023-04-20T01:02:38.025Z,27.49
2023-04-20T01:03:37.962Z,27.49
2023-04-20T01:04:37.923Z,27.54
2023-04-20T01:05:37.917Z,27.47
2023-04-20T01:06:37.919Z,27.49
2023-04-20T01:07:37.961Z,27.55
2023-04-20T01:08:38.028Z,27.59
2023-04-20T01:09:38.049Z,27.65
2023-04-20T01:10:38.080Z,27.74
2023-04-20T01:11:38.104Z,27.65
2023-04-20T01:12:38.092Z,27.55
2023-04-20T01:13:38.170Z,27.55
2023-04-20T01:14:38.185Z,27.55
2023-04-20T01:15:38.234Z,27.52
2023-04-20T01:16:38.227Z,27.59
2023-04-20T01:17:38.271Z,27.66
2023-04-20T01:18:38.282Z,27.59
2023-04-20T01:19:38.297Z,27.57
2023-04-20T01:20:38.356Z,27.64
2023-04-20T01:21:38.373Z,27.53
2023-04-20T01:22:38.369Z,27.51
2023-04-20T01:23:38.447Z,27.51
2023-04-20T01:24:38.454Z,27.54
2023-04-20T01:25:38.503Z,27.63
2023-04-20T01:26:38.536Z,27.58
2023-04-20T01:27:38.557Z,27.52
2023-04-20T01:28:38.599Z,27.54
2023-04-20T01:29:38.629Z,27.54
2023-04-20T01:30:38.635Z,27.64
2023-04-20T01:31:38.741Z,27.50
2023-04-20T01:32:38.681Z,27.47
2023-04-20T01:33:38.733Z,27.62
2023-04-20T01:34:38.726Z,27.59
2023-04-20T01:35:38.758Z,27.49
2023-04-20T01:36:38.786Z,27.56
2023-04-20T01:37:38.902Z,27.56
2023-04-20T01:38:38.851Z,27.66
2023-04-20T01:39:38.954Z,27.50
2023-04-20T01:40:38.974Z,27.58
2023-04-20T01:41:38.953Z,27.47
2023-04-20T01:42:38.954Z,27.48
2023-04-20T01:43:39.003Z,27.45
2023-04-20T01:44:39.047Z,27.51
2023-04-20T01:45:39.039Z,27.52
2023-04-20T01:46:39.176Z,27.52
2023-04-20T01:47:39.130Z,27.47
2023-04-20T01:48:39.123Z,27.49
2023-04-20T01:49:39.181Z,27.49
2023-04-20T01:50:39.179Z,27.52
2023-04-20T01:51:39.176Z,27.60
2023-04-20T01:52:39.265Z,27.56
2023-04-20T01:53:39.275Z,27.85
2023-04-20T01:54:39.271Z,27.60
2023-04-20T01:55:39.329Z,27.52
2023-04-20T01:56:39.315Z,27.50
2023-04-20T01:57:39.396Z,27.53
2023-04-20T01:58:39.418Z,27.50
2023-04-20T01:59:39.460Z,27.50
2023-04-20T02:00:39.516Z,27.55
2023-04-20T02:01:39.503Z,27.48
2023-04-20T02:02:39.635Z,27.47
2023-04-20T02:03:39.735Z,27.50
2023-04-20T02:04:39.575Z,27.50
2023-04-20T02:05:39.586Z,27.47
2023-04-20T02:06:39.611Z,27.49
2023-04-20T02:07:39.679Z,27.46
2023-04-20T02:08:39.685Z,27.50
2023-04-20T02:09:39.727Z,27.58
2023-04-20T02:10:39.799Z,27.57
2023-04-20T02:11:39.804Z,27.50
2023-04-20T02:12:39.809Z,27.55
2023-04-20T02:13:39.822Z,27.50
2023-04-20T02:14:39.852Z,27.66
2023-04-20T02:15:39.863Z,27.53
2023-04-20T02:16:39.977Z,27.49
2023-04-20T02:17:39.930Z,27.52
2023-04-20T02:18:39.972Z,27.50
2023-04-20T02:19:39.997Z,27.43
2023-04-20T02:20:40.072Z,27.52
2023-04-20T02:21:40.075Z,27.56
2023-04-20T02:22:40.083Z,27.70
2023-04-20T02:23:40.182Z,27.69
2023-04-20T02:24:40.135Z,27.56
2023-04-20T02:25:40.163Z,27.54
2023-04-20T02:26:40.209Z,27.55
2023-04-20T02:27:40.220Z,27.53
2023-04-20T02:28:40.262Z,27.62
2023-04-20T02:29:40.335Z,27.55
2023-04-20T02:30:40.312Z,27.55
2023-04-20T02:32:40.389Z,27.52
2023-04-20T02:33:40.390Z,27.52
2023-04-20T02:34:40.422Z,27.53
2023-04-20T02:35:40.480Z,27.53
2023-04-20T02:36:40.495Z,27.53
2023-04-20T02:37:40.521Z,27.46
2023-04-20T02:38:40.525Z,27.50
2023-04-20T02:39:40.562Z,27.47
2023-04-20T02:40:40.612Z,27.63
2023-04-20T02:41:40.621Z,27.59
2023-04-20T02:42:40.670Z,27.50
2023-04-20T02:43:40.686Z,27.53
2023-04-20T02:44:40.740Z,27.50
2023-04-20T02:45:40.780Z,27.50
2023-04-20T02:46:40.852Z,27.54
2023-04-20T02:47:40.814Z,27.47
2023-04-20T02:48:40.838Z,27.60
2023-04-20T02:49:40.853Z,27.50
2023-04-20T02:50:40.877Z,27.46
2023-04-20T02:51:40.933Z,27.53
2023-04-20T02:52:40.953Z,27.50
2023-04-20T02:53:41.002Z,27.52
2023-04-20T02:54:41.027Z,27.47
2023-04-20T02:55:41.056Z,27.46
2023-04-20T02:56:41.137Z,27.50
2023-04-20T02:57:41.118Z,27.47
2023-04-20T02:58:41.148Z,27.54
2023-04-20T02:59:41.155Z,27.53
2023-04-20T03:00:41.219Z,27.63
2023-04-20T03:01:41.295Z,27.66
2023-04-20T03:02:41.410Z,27.61
2023-04-20T03:03:41.362Z,27.61
2023-04-20T03:04:41.395Z,27.52
2023-04-20T03:05:41.331Z,27.51
2023-04-20T03:06:41.382Z,27.47
2023-04-20T03:07:41.425Z,27.54
2023-04-20T03:08:41.449Z,27.54
2023-04-20T03:09:41.444Z,27.60
2023-04-20T03:10:41.518Z,27.49
2023-04-20T03:11:41.518Z,27.47
2023-04-20T03:12:41.570Z,27.51
2023-04-20T03:13:41.606Z,27.52
2023-04-20T03:14:41.636Z,27.51
2023-04-20T03:15:41.626Z,27.57
2023-04-20T03:16:41.769Z,27.51
2023-04-20T03:17:41.739Z,27.50
2023-04-20T03:18:41.715Z,27.57
2023-04-20T03:19:41.776Z,27.49
2023-04-20T03:20:41.796Z,27.50
2023-04-20T03:21:41.797Z,27.57
2023-04-20T03:22:41.817Z,27.64
2023-04-20T03:23:41.860Z,27.54
2023-04-20T03:24:41.892Z,27.54
2023-04-20T03:25:41.938Z,27.51
2023-04-20T03:26:41.938Z,27.53
2023-04-20T03:27:41.957Z,27.54
2023-04-20T03:28:42.009Z,27.48
2023-04-20T03:29:42.012Z,27.50
2023-04-20T03:30:42.081Z,27.49
2023-04-20T03:31:42.200Z,27.54
2023-04-20T03:32:42.191Z,27.50
2023-04-20T03:33:42.206Z,27.56
2023-04-20T03:34:42.144Z,27.57
2023-04-20T03:35:42.218Z,27.56
2023-04-20T03:36:42.226Z,27.51
2023-04-20T03:37:42.254Z,27.51
2023-04-20T03:38:42.328Z,27.55
2023-04-20T03:39:42.346Z,27.53
2023-04-20T03:40:42.356Z,27.53
2023-04-20T03:41:42.377Z,27.47
2023-04-20T03:42:42.395Z,27.53
2023-04-20T03:43:42.417Z,27.49
2023-04-20T03:44:42.472Z,27.51
2023-04-20T03:45:42.492Z,27.48
2023-04-20T03:46:42.521Z,27.47
2023-04-20T03:47:42.616Z,27.50
2023-04-20T03:48:42.658Z,27.48
2023-04-20T03:49:42.636Z,27.53
2023-04-20T03:50:42.640Z,27.51
2023-04-20T03:51:42.680Z,27.58
2023-04-20T03:52:42.756Z,27.54
2023-04-20T03:53:42.801Z,27.50
2023-04-20T03:54:42.795Z,27.53
2023-04-20T03:55:42.860Z,27.55
2023-04-20T03:56:42.867Z,27.47
2023-04-20T03:57:42.915Z,27.48
2023-04-20T03:58:42.902Z,27.58
2023-04-20T03:59:42.963Z,27.62
2023-04-20T04:00:42.950Z,27.58
2023-04-20T04:01:43.006Z,27.55
2023-04-20T04:02:43.203Z,27.68
2023-04-20T04:03:43.314Z,27.54
2023-04-20T04:04:43.191Z,27.41
2023-04-20T04:05:43.170Z,27.34
2023-04-20T04:06:43.185Z,27.23
2023-04-20T04:07:43.195Z,27.16
2023-04-20T04:08:43.315Z,27.03
2023-04-20T04:09:43.315Z,27.00
2023-04-20T04:10:43.360Z,26.93
2023-04-20T04:11:43.434Z,26.82
2023-04-20T04:12:43.449Z,26.83
2023-04-20T04:13:43.511Z,26.79
2023-04-20T04:14:43.565Z,26.67
2023-04-20T04:15:43.575Z,26.63
2023-04-20T04:16:43.653Z,26.60
2023-04-20T04:17:43.714Z,26.53
2023-04-20T04:18:43.710Z,26.50
2023-04-20T04:19:43.782Z,26.47
2023-04-20T04:20:43.761Z,26.43
2023-04-20T04:21:43.777Z,26.39
2023-04-20T04:22:43.824Z,26.37
2023-04-20T04:23:43.888Z,26.26
2023-04-20T04:24:43.956Z,26.22
2023-04-20T04:25:43.952Z,26.22
2023-04-20T04:26:43.980Z,26.25
2023-04-20T04:27:44.015Z,26.15
2023-04-20T04:28:44.132Z,26.20
2023-04-20T04:29:44.102Z,26.07
2023-04-20T04:30:44.146Z,26.06
2023-04-20T04:31:44.202Z,26.11
2023-04-20T04:32:44.315Z,26.15
2023-04-20T04:33:44.308Z,26.11
2023-04-20T04:34:44.342Z,26.17
2023-04-20T04:35:44.416Z,26.22
2023-04-20T04:36:44.425Z,26.13
2023-04-20T04:37:44.464Z,26.12
2023-04-20T04:38:44.524Z,26.05
2023-04-20T04:39:44.563Z,26.23
2023-04-20T04:40:44.626Z,26.23
2023-04-20T04:41:44.636Z,26.20
2023-04-20T04:42:44.671Z,26.16
2023-04-20T04:43:44.756Z,26.20
2023-04-20T04:44:44.799Z,26.23
2023-04-20T04:45:44.836Z,26.30
2023-04-20T04:46:44.952Z,26.25
2023-04-20T04:47:44.923Z,26.25
2023-04-20T04:48:44.971Z,26.26
2023-04-20T04:49:45.015Z,26.32
2023-04-20T04:50:45.016Z,26.37
2023-04-20T04:51:45.080Z,26.37
2023-04-20T04:52:45.085Z,26.36
2023-04-20T04:53:45.163Z,26.40
2023-04-20T04:54:45.178Z,26.36
2023-04-20T04:55:45.200Z,26.37
2023-04-20T04:56:45.275Z,26.37
2023-04-20T04:57:45.290Z,26.49
2023-04-20T04:58:45.339Z,26.51
2023-04-20T04:59:45.370Z,26.53
2023-04-20T05:00:45.370Z,26.54
2023-04-20T05:01:45.503Z,26.46
2023-04-20T05:02:45.731Z,26.49
2023-04-20T05:03:45.872Z,26.37
2023-04-20T05:04:45.723Z,26.41
2023-04-20T05:05:45.626Z,26.46
2023-04-20T05:06:45.614Z,26.46
2023-04-20T05:07:45.653Z,26.46
2023-04-20T05:08:45.692Z,26.49
2023-04-20T05:09:45.722Z,26.50
2023-04-20T05:10:45.771Z,26.47
2023-04-20T05:11:45.998Z,26.54
2023-04-20T05:12:45.798Z,26.52
2023-04-20T05:13:45.876Z,26.50
2023-04-20T05:14:45.908Z,26.50
2023-04-20T05:15:45.992Z,26.47
2023-04-20T05:16:46.050Z,26.52
2023-04-20T05:17:46.048Z,26.49
2023-04-20T05:18:46.074Z,26.49
2023-04-20T05:19:46.123Z,26.55
2023-04-20T05:20:46.135Z,26.53
2023-04-20T05:21:46.194Z,26.50
2023-04-20T05:22:46.249Z,26.52
2023-04-20T05:23:46.282Z,26.53
2023-04-20T05:24:46.326Z,26.51
2023-04-20T05:25:46.322Z,26.57
2023-04-20T05:26:46.371Z,26.49
2023-04-20T05:27:46.396Z,26.50
2023-04-20T05:28:46.501Z,26.63
2023-04-20T05:29:46.548Z,26.50
2023-04-20T05:30:46.550Z,26.50
2023-04-20T05:31:46.635Z,26.11
2023-04-20T05:32:47.794Z,26.33
2023-04-20T05:33:46.624Z,26.39
2023-04-20T05:34:46.612Z,26.60
2023-04-20T05:35:46.603Z,26.55
2023-04-20T05:36:46.577Z,26.82
2023-04-20T05:37:46.580Z,27.24
2023-04-20T05:38:46.554Z,27.34
2023-04-20T05:39:46.519Z,27.30
2023-04-20T05:40:46.574Z,27.36
2023-04-20T05:41:46.534Z,27.71
2023-04-20T05:42:46.532Z,27.52
2023-04-20T05:43:46.521Z,27.55
2023-04-20T05:44:46.558Z,27.58
2023-04-20T05:45:46.612Z,28.00
2023-04-20T05:46:46.503Z,27.80
2023-04-20T05:47:46.505Z,27.85
2023-04-20T05:48:46.762Z,28.08
2023-04-20T05:49:46.627Z,27.85
2023-04-20T05:50:46.492Z,27.78
2023-04-20T05:51:46.634Z,28.46
2023-04-20T05:52:46.461Z,28.29
2023-04-20T05:53:46.485Z,28.12
2023-04-20T05:54:46.630Z,28.18
2023-04-20T05:55:46.642Z,28.13
2023-04-20T05:56:46.502Z,28.17
2023-04-20T05:57:46.423Z,28.45
2023-04-20T05:58:46.433Z,28.49
2023-04-20T05:59:46.387Z,28.60
2023-04-20T06:00:48.128Z,28.64
2023-04-20T06:01:46.389Z,28.76
2023-04-20T06:02:46.577Z,28.87
2023-04-20T06:03:46.528Z,28.89
2023-04-20T06:04:46.660Z,28.87
2023-04-20T06:05:46.623Z,28.90
2023-04-20T06:06:47.253Z,29.08
2023-04-20T06:07:46.344Z,28.95
2023-04-20T06:08:46.352Z,28.85
2023-04-20T06:09:46.359Z,28.78
2023-04-20T06:10:46.670Z,28.74
2023-04-20T06:11:46.338Z,28.77
2023-04-20T06:12:46.375Z,28.96
2023-04-20T06:13:46.340Z,28.84
2023-04-20T06:14:46.324Z,28.79
2023-04-20T06:15:46.358Z,28.81
2023-04-20T06:16:46.306Z,28.78
2023-04-20T06:17:46.356Z,28.81
2023-04-20T06:18:46.264Z,28.83
2023-04-20T06:19:46.255Z,28.77
2023-04-20T06:20:46.291Z,28.81
2023-04-20T06:21:46.272Z,28.82
2023-04-20T06:22:46.232Z,29.02
2023-04-20T06:23:46.259Z,28.84
2023-04-20T06:24:46.253Z,28.70
2023-04-20T06:25:46.247Z,28.63
2023-04-20T06:26:46.211Z,28.50
2023-04-20T06:27:46.224Z,28.37
2023-04-20T06:28:46.211Z,28.31
2023-04-20T06:29:47.970Z,28.22
2023-04-20T06:30:46.248Z,28.12
2023-04-20T06:31:46.259Z,28.09
2023-04-20T06:32:46.238Z,28.03
2023-04-20T06:33:46.227Z,27.92
2023-04-20T06:34:46.144Z,27.98
2023-04-20T06:35:46.154Z,27.88
2023-04-20T06:36:46.132Z,27.44
2023-04-20T06:37:46.677Z,27.42
2023-04-20T06:38:46.130Z,26.81
2023-04-20T06:39:46.184Z,26.97
2023-04-20T06:40:46.155Z,26.91
2023-04-20T06:41:46.127Z,26.79
2023-04-20T06:42:46.136Z,26.73
2023-04-20T06:43:46.138Z,26.81
2023-04-20T06:44:46.694Z,26.65
2023-04-20T06:45:46.191Z,26.39
2023-04-20T06:46:46.346Z,26.53
2023-04-20T06:47:46.272Z,26.29
2023-04-20T06:48:46.266Z,25.93
2023-04-20T06:49:46.668Z,25.82
2023-04-20T06:50:46.312Z,25.83
2023-04-20T06:51:46.323Z,25.67
2023-04-20T06:52:46.344Z,26.03
2023-04-20T06:53:46.383Z,26.22
2023-04-20T06:54:46.380Z,26.36
2023-04-20T06:55:46.450Z,26.36
2023-04-20T06:56:46.480Z,26.47
2023-04-20T06:57:47.150Z,26.52
2023-04-20T06:58:46.681Z,26.53
2023-04-20T06:59:46.698Z,26.45
2023-04-20T07:00:46.742Z,26.54
2023-04-20T07:01:47.175Z,26.69
2023-04-20T07:02:46.751Z,26.65
2023-04-20T07:03:46.976Z,26.64
2023-04-20T07:04:46.754Z,26.68
2023-04-20T07:05:46.869Z,26.67
2023-04-20T07:06:47.198Z,26.72
2023-04-20T07:07:47.225Z,26.69
2023-04-20T07:08:47.153Z,26.69
2023-04-20T07:09:46.748Z,26.89
2023-04-20T07:10:46.773Z,26.79
2023-04-20T07:11:47.187Z,26.82
2023-04-20T07:12:47.259Z,26.81
2023-04-20T07:13:46.758Z,26.78
2023-04-20T07:14:47.234Z,26.77
2023-04-20T07:15:46.790Z,26.82
2023-04-20T07:16:46.878Z,26.84
2023-04-20T07:17:47.196Z,26.80
2023-04-20T07:18:46.790Z,26.94
2023-04-20T07:19:46.875Z,26.82
2023-04-20T07:20:47.173Z,26.87
2023-04-20T07:21:46.779Z,26.83
2023-04-20T07:22:46.773Z,26.82
2023-04-20T07:23:46.784Z,26.82
2023-04-20T07:24:46.795Z,26.85
2023-04-20T07:25:46.815Z,26.88
2023-04-20T07:26:46.812Z,26.88
2023-04-20T07:27:46.921Z,26.90
2023-04-20T07:28:46.836Z,27.35
2023-04-20T07:29:46.888Z,27.17
2023-04-20T07:30:47.260Z,27.28
2023-04-20T07:31:47.063Z,27.10
2023-04-20T07:32:47.056Z,27.09
2023-04-20T07:33:47.079Z,26.86
2023-04-20T07:34:47.071Z,26.61
2023-04-20T07:35:47.065Z,25.22
2023-04-20T07:36:47.179Z,24.56
2023-04-20T07:37:47.348Z,24.49
2023-04-20T07:38:47.201Z,24.96
2023-04-20T07:39:47.395Z,25.22
2023-04-20T07:40:47.318Z,25.51
2023-04-20T07:41:47.683Z,25.74
2023-04-20T07:42:47.428Z,25.85
2023-04-20T07:43:47.465Z,26.11
2023-04-20T07:44:47.507Z,26.22
2023-04-20T07:45:47.695Z,26.33
2023-04-20T07:46:47.553Z,26.40
2023-04-20T07:47:47.682Z,26.44
2023-04-20T07:48:47.720Z,26.56
2023-04-20T07:49:47.641Z,26.51
2023-04-20T07:50:47.684Z,26.57
2023-04-20T07:51:47.676Z,26.87
2023-04-20T07:52:47.720Z,26.88
2023-04-20T07:53:47.676Z,27.26
2023-04-20T07:54:47.636Z,27.11
2023-04-20T07:55:49.652Z,27.10
2023-04-20T07:56:47.620Z,27.03
2023-04-20T07:57:47.623Z,27.00
2023-04-20T07:58:47.772Z,27.15
2023-04-20T07:59:47.610Z,27.20
2023-04-20T08:00:47.665Z,27.22
2023-04-20T08:01:47.592Z,27.22
2023-04-20T08:02:47.797Z,27.20
2023-04-20T08:03:47.817Z,27.26
2023-04-20T08:04:47.692Z,27.25
2023-04-20T08:05:47.618Z,27.23
2023-04-20T08:06:47.591Z,27.31
2023-04-20T08:07:48.430Z,27.35
2023-04-20T08:08:47.568Z,27.45
2023-04-20T08:09:47.568Z,27.55
2023-04-20T08:10:47.576Z,27.47
2023-04-20T08:11:47.528Z,27.49
2023-04-20T08:12:48.579Z,27.49
2023-04-20T08:13:47.586Z,27.61
2023-04-20T08:14:47.544Z,27.63
2023-04-20T08:15:47.509Z,27.67
2023-04-20T08:16:47.510Z,27.59
2023-04-20T08:17:47.525Z,27.70
2023-04-20T08:18:47.505Z,27.67
2023-04-20T08:19:47.482Z,27.70
2023-04-20T08:20:47.511Z,27.73
2023-04-20T08:21:47.484Z,27.69
2023-04-20T08:22:47.453Z,27.81
2023-04-20T08:23:47.449Z,27.70
2023-04-20T08:24:47.460Z,27.83
2023-04-20T08:25:47.469Z,27.87
2023-04-20T08:26:47.735Z,27.84
2023-04-20T08:27:47.424Z,27.71
2023-04-20T08:28:47.453Z,27.60
2023-04-20T08:29:47.680Z,27.46
2023-04-20T08:30:47.469Z,27.29
2023-04-20T08:31:49.068Z,27.23
2023-04-20T08:32:47.549Z,27.13
2023-04-20T08:33:47.827Z,27.00
2023-04-20T08:34:47.574Z,26.93
2023-04-20T08:35:47.632Z,26.77
2023-04-20T08:36:47.716Z,26.74
2023-04-20T08:37:47.756Z,26.79
2023-04-20T08:38:47.819Z,26.67
2023-04-20T08:39:47.841Z,26.62
2023-04-20T08:40:47.941Z,26.63
2023-04-20T08:41:48.013Z,26.52
2023-04-20T08:42:48.001Z,26.36
2023-04-20T08:43:47.998Z,26.97
2023-04-20T08:44:48.001Z,26.58
2023-04-20T08:45:48.008Z,26.76
2023-04-20T08:46:48.113Z,26.98
2023-04-20T08:47:48.181Z,27.10
2023-04-20T08:48:48.096Z,27.12
2023-04-20T08:49:48.188Z,27.31
2023-04-20T08:50:48.200Z,27.40
2023-04-20T08:51:48.265Z,27.51
2023-04-20T08:52:48.402Z,27.57
2023-04-20T08:53:48.386Z,27.71
2023-04-20T08:54:56.728Z,27.81
2023-04-20T08:55:49.461Z,27.92
2023-04-20T08:56:48.434Z,27.89
2023-04-20T08:57:48.755Z,27.90
2023-04-20T08:58:48.382Z,27.99
2023-04-20T08:59:48.733Z,28.04
2023-04-20T09:00:48.423Z,28.00
2023-04-20T09:01:48.799Z,27.95
2023-04-20T09:02:48.822Z,27.87
2023-04-20T09:03:48.740Z,28.06
2023-04-20T09:04:48.446Z,27.96
2023-04-20T09:05:48.338Z,27.93
2023-04-20T09:06:48.699Z,27.91
2023-04-20T09:07:48.414Z,28.00
2023-04-20T09:08:48.477Z,27.97
2023-04-20T09:09:48.473Z,28.12
2023-04-20T09:10:48.536Z,28.13
2023-04-20T09:11:48.563Z,28.18
2023-04-20T09:12:48.620Z,28.15
2023-04-20T09:13:48.600Z,28.20
2023-04-20T09:14:48.629Z,28.17
2023-04-20T09:15:48.663Z,28.29
2023-04-20T09:16:48.772Z,28.26
2023-04-20T09:17:49.249Z,28.26
2023-04-20T09:18:48.755Z,28.36
2023-04-20T09:19:48.804Z,28.50
2023-04-20T09:20:48.808Z,28.54
2023-04-20T09:21:48.838Z,28.50
2023-04-20T09:22:48.863Z,28.56
2023-04-20T09:23:48.900Z,28.46
2023-04-20T09:24:48.890Z,28.52
2023-04-20T09:25:48.919Z,28.55
2023-04-20T09:26:48.966Z,28.57
2023-04-20T09:27:49.088Z,28.56
2023-04-20T09:28:49.097Z,28.64
2023-04-20T09:29:49.107Z,28.66
2023-04-20T09:30:49.219Z,28.88
2023-04-20T09:31:49.214Z,29.04
2023-04-20T09:32:49.263Z,28.85
2023-04-20T09:33:55.688Z,28.80
2023-04-20T09:34:49.155Z,28.60
2023-04-20T09:35:49.239Z,28.47
2023-04-20T09:36:49.226Z,28.26
2023-04-20T09:37:49.243Z,28.08
2023-04-20T09:38:49.249Z,28.03
2023-04-20T09:39:49.266Z,27.95
2023-04-20T09:40:49.293Z,27.82
2023-04-20T09:41:49.209Z,27.69
2023-04-20T09:42:49.220Z,27.58
2023-04-20T09:43:49.220Z,27.49
2023-04-20T09:44:49.218Z,27.43
2023-04-20T09:45:49.449Z,27.33
2023-04-20T09:46:49.245Z,27.26
2023-04-20T09:47:49.356Z,27.17
2023-04-20T09:48:49.060Z,27.06
2023-04-20T09:49:49.077Z,26.99
2023-04-20T09:50:50.626Z,26.89
2023-04-20T09:51:49.224Z,26.82
2023-04-20T09:52:49.282Z,26.82
2023-04-20T09:53:50.705Z,26.73
2023-04-20T09:54:49.302Z,26.66
2023-04-20T09:55:49.312Z,26.55
2023-04-20T09:56:49.328Z,26.40
2023-04-20T09:57:49.316Z,26.29
2023-04-20T09:58:49.288Z,26.25
2023-04-20T09:59:50.322Z,26.26
2023-04-20T10:00:49.449Z,26.13
2023-04-20T10:01:49.528Z,26.16
2023-04-20T10:02:49.481Z,26.05
2023-04-20T10:03:49.436Z,25.96
2023-04-20T10:04:49.462Z,25.91
2023-04-20T10:05:50.258Z,25.93
2023-04-20T10:06:49.352Z,25.95
2023-04-20T10:07:49.408Z,25.78
2023-04-20T10:08:49.563Z,25.77
2023-04-20T10:09:49.575Z,25.55
2023-04-20T10:10:49.560Z,25.61
2023-04-20T10:11:53.161Z,25.61
2023-04-20T10:12:50.619Z,25.69
2023-04-20T10:13:49.640Z,25.68
2023-04-20T10:14:49.600Z,25.78
2023-04-20T10:15:49.566Z,25.79
2023-04-20T10:16:49.614Z,25.84
2023-04-20T10:17:49.675Z,25.88
2023-04-20T10:18:49.648Z,25.91
2023-04-20T10:19:49.565Z,25.98
2023-04-20T10:20:49.509Z,25.98
2023-04-20T10:21:49.516Z,25.99
2023-04-20T10:22:49.541Z,26.02
2023-04-20T10:23:49.585Z,26.03
2023-04-20T10:24:49.654Z,26.01
2023-04-20T10:25:49.685Z,26.01
2023-04-20T10:26:49.732Z,26.01
2023-04-20T10:27:49.740Z,26.08
2023-04-20T10:28:49.864Z,26.07
2023-04-20T10:29:49.817Z,26.02
2023-04-20T10:30:50.286Z,26.11
2023-04-20T10:31:49.903Z,26.14
2023-04-20T10:32:49.957Z,26.11
2023-04-20T10:33:49.961Z,26.14
2023-04-20T10:34:49.986Z,26.14
2023-04-20T10:35:50.096Z,26.10
2023-04-20T10:36:50.082Z,26.15
2023-04-20T10:37:50.093Z,26.13
2023-04-20T10:38:50.096Z,26.14
2023-04-20T10:39:50.165Z,26.14
2023-04-20T10:40:50.163Z,26.15
2023-04-20T10:41:50.197Z,26.14
2023-04-20T10:42:50.237Z,26.15
2023-04-20T10:43:50.266Z,26.20
2023-04-20T10:44:50.271Z,26.20
2023-04-20T10:45:50.308Z,26.18
2023-04-20T10:46:50.349Z,26.25
2023-04-20T10:47:50.357Z,26.24
2023-04-20T10:48:50.373Z,26.18
2023-04-20T10:49:50.378Z,26.24
2023-04-20T10:50:50.381Z,26.25
2023-04-20T10:51:50.407Z,26.27
2023-04-20T10:52:50.465Z,26.28
2023-04-20T10:53:50.466Z,26.27
2023-04-20T10:54:50.437Z,26.31
2023-04-20T10:55:50.469Z,26.31
2023-04-20T10:56:50.477Z,26.30
2023-04-20T10:57:50.544Z,26.28
2023-04-20T10:58:50.545Z,26.30
2023-04-20T10:59:50.552Z,26.33
2023-04-20T11:00:50.575Z,26.33
2023-04-20T11:01:51.551Z,26.38
2023-04-20T11:02:50.933Z,26.31
2023-04-20T11:03:50.674Z,26.33
2023-04-20T11:04:50.690Z,26.37
2023-04-20T11:05:50.652Z,26.39
2023-04-20T11:06:50.663Z,26.39
2023-04-20T11:07:50.670Z,26.37
2023-04-20T11:08:50.713Z,26.34
2023-04-20T11:09:50.673Z,26.39
2023-04-20T11:10:50.736Z,26.40
2023-04-20T11:11:50.744Z,26.36
2023-04-20T11:12:50.740Z,26.39
2023-04-20T11:13:50.887Z,26.43
2023-04-20T11:14:50.807Z,26.40
2023-04-20T11:15:50.829Z,26.40
2023-04-20T11:16:52.138Z,26.41
2023-04-20T11:17:50.861Z,26.37
2023-04-20T11:18:51.003Z,26.29
2023-04-20T11:19:50.887Z,26.29
2023-04-20T11:20:50.922Z,25.23
2023-04-20T11:21:51.024Z,25.65
2023-04-20T11:22:52.091Z,25.35
2023-04-20T11:23:50.974Z,25.04
2023-04-20T11:24:50.992Z,24.74
2023-04-20T11:25:50.996Z,24.39
2023-04-20T11:26:50.991Z,24.28
2023-04-20T11:27:50.978Z,23.95
2023-04-20T11:28:51.282Z,23.75
2023-04-20T11:29:50.958Z,23.65
2023-04-20T11:30:50.944Z,23.56
2023-04-20T11:31:51.015Z,23.57
2023-04-20T11:32:50.983Z,23.64
2023-04-20T11:33:51.000Z,23.74
2023-04-20T11:34:56.046Z,23.89
2023-04-20T11:35:51.928Z,23.95
2023-04-20T11:36:50.908Z,23.97
2023-04-20T11:37:53.821Z,24.07
2023-04-20T11:38:50.873Z,24.20
2023-04-20T11:39:50.877Z,24.26
2023-04-20T11:40:50.888Z,24.22
2023-04-20T11:41:50.891Z,24.29
2023-04-20T11:42:50.841Z,24.29
2023-04-20T11:43:50.860Z,24.32
2023-04-20T11:44:50.860Z,24.37
2023-04-20T11:45:50.899Z,24.33
2023-04-20T11:46:50.869Z,24.32
2023-04-20T11:47:50.840Z,24.35
2023-04-20T11:48:50.821Z,24.42
2023-04-20T11:49:50.850Z,24.30
2023-04-20T11:50:50.799Z,24.39
2023-04-20T11:51:50.800Z,24.40
2023-04-20T11:52:50.811Z,24.42
2023-04-20T11:53:50.770Z,24.45
2023-04-20T11:54:50.745Z,24.42
2023-04-20T11:55:50.787Z,24.49
2023-04-20T11:56:50.748Z,24.46
2023-04-20T11:57:50.746Z,24.49
2023-04-20T11:58:50.719Z,24.51
2023-04-20T11:59:50.731Z,24.48
2023-04-20T12:00:50.726Z,24.52
2023-04-20T12:01:50.725Z,24.49
2023-04-20T12:02:50.980Z,24.58
2023-04-20T12:03:50.843Z,24.58
2023-04-20T12:04:50.879Z,24.59
2023-04-20T12:05:50.706Z,24.54
2023-04-20T12:06:50.700Z,24.54
2023-04-20T12:07:50.682Z,24.55
2023-04-20T12:08:50.638Z,24.49
2023-04-20T12:09:50.662Z,24.51
2023-04-20T12:10:50.636Z,24.64
2023-04-20T12:11:50.639Z,24.61
2023-04-20T12:12:50.629Z,24.59
2023-04-20T12:13:50.596Z,24.60
2023-04-20T12:14:50.572Z,24.64
2023-04-20T12:15:50.629Z,24.69
2023-04-20T12:16:50.613Z,24.67
2023-04-20T12:17:50.616Z,24.68
2023-04-20T12:18:50.577Z,24.62
2023-04-20T12:19:50.588Z,24.67
2023-04-20T12:20:50.555Z,24.61
2023-04-20T12:21:50.548Z,24.59
2023-04-20T12:22:50.557Z,24.55
2023-04-20T12:23:50.614Z,24.55
2023-04-20T12:24:50.684Z,24.51
2023-04-20T12:25:50.734Z,24.51
2023-04-20T12:26:50.742Z,24.38
2023-04-20T12:27:50.769Z,24.40
2023-04-20T12:28:50.844Z,24.40
2023-04-20T12:29:50.854Z,24.35
2023-04-20T12:30:50.952Z,24.40
2023-04-20T12:31:51.072Z,24.30
2023-04-20T12:32:50.990Z,24.26
2023-04-20T12:33:51.050Z,24.24
2023-04-20T12:34:51.058Z,24.24
2023-04-20T12:35:51.114Z,24.22
2023-04-20T12:36:51.252Z,24.22
2023-04-20T12:37:51.220Z,24.16
2023-04-20T12:38:51.214Z,24.16
2023-04-20T12:39:51.258Z,24.10
2023-04-20T12:40:51.350Z,24.09
2023-04-20T12:41:51.365Z,24.11
2023-04-20T12:42:51.398Z,24.06
2023-04-20T12:43:51.484Z,24.09
2023-04-20T12:44:51.465Z,24.03
2023-04-20T12:45:51.530Z,23.96
2023-04-20T12:46:51.547Z,24.02
2023-04-20T12:47:53.268Z,23.98
2023-04-20T12:48:51.608Z,23.98
2023-04-20T12:49:51.537Z,23.94
2023-04-20T12:50:51.537Z,23.94
2023-04-20T12:51:51.566Z,23.88
2023-04-20T12:52:51.535Z,23.93
2023-04-20T12:53:51.519Z,23.90